This is the latest recevied weather packets stored in our database for station/object EA3GKP-10. If no packets are shown the sender has not sent any weather packets the latest 10 day(s).
| Time | Temp. | Humidity | Pressure | Rain* | Wind** | Luminosity | Snow |
|---|---|---|---|---|---|---|---|
| 1777545937 | 21.11° C | - | - | 0 mm | 1.79 m/s, 166° | - | - |
| 1777545028 | 21.67° C | - | - | 0 mm | 2.24 m/s, 152° | - | - |
| 1777544725 | 22.78° C | - | - | 0 mm | 1.34 m/s, 66° | - | - |
| 1777544422 | 21.67° C | - | - | 0 mm | 1.79 m/s, 162° | - | - |
| 1777544119 | 22.78° C | - | - | 0 mm | 0.89 m/s, 169° | - | - |
| 1777543817 | 21.11° C | - | - | 0 mm | 2.68 m/s, 173° | - | - |
| 1777543514 | 22.78° C | - | - | 0 mm | 0.89 m/s, 93° | - | - |
| 1777543211 | 21.67° C | - | - | 0 mm | 1.34 m/s, 169° | - | - |
| 1777542908 | 22.22° C | - | - | 0 mm | 0.45 m/s, 143° | - | - |
| 1777542605 | 21.67° C | - | - | 0 mm | 1.34 m/s, 90° | - | - |
| 1777542301 | 21.11° C | - | - | 0 mm | 1.79 m/s, 163° | - | - |
| 1777541695 | 20° C | - | - | 0 mm | 2.68 m/s, 60° | - | - |
| 1777541392 | 21.11° C | - | - | 0 mm | 0.89 m/s, 86° | - | - |
| 1777541089 | 21.11° C | - | - | 0 mm | 1.34 m/s, 111° | - | - |
| 1777540785 | 21.11° C | - | - | 0 mm | 0.89 m/s, 152° | - | - |
| 1777540482 | 20.56° C | - | - | 0 mm | 1.79 m/s, 194° | - | - |
| 1777540179 | 21.11° C | - | - | 0 mm | 0.89 m/s, 179° | - | - |
| 1777539876 | 21.11° C | - | - | 0 mm | 1.34 m/s, 142° | - | - |
| 1777539573 | 21.11° C | - | - | 0 mm | 0.89 m/s, 103° | - | - |
| 1777539270 | 21.11° C | - | - | 0 mm | 0.89 m/s, 60° | - | - |
| 1777538967 | 20.56° C | - | - | 0 mm | 0.89 m/s, 104° | - | - |
| 1777538664 | 20.56° C | - | - | 0 mm | 1.34 m/s, 108° | - | - |
| 1777538059 | 21.11° C | - | - | 0 mm | 0.89 m/s, 124° | - | - |
| 1777537756 | 20° C | - | - | 0 mm | 0 m/s | - | - |
| 1777537453 | 20° C | - | - | 0 mm | 0 m/s | - | - |
* Rain latest hour (hover to see other rain measurements)
** Current wind speed in m/s (hover to see current wind gust speed)